createdAt,value
2016-10-15T00:00:58.337Z,957.9
2016-10-15T00:01:58.299Z,957.97
2016-10-15T00:02:58.259Z,958.01
2016-10-15T00:03:58.222Z,958.12
2016-10-15T00:04:58.184Z,958.16
2016-10-15T00:05:58.144Z,958.12
2016-10-15T00:06:58.106Z,958.13
2016-10-15T00:07:58.068Z,958.15
2016-10-15T00:08:58.031Z,958.12
2016-10-15T00:09:57.991Z,958.13
2016-10-15T00:10:57.954Z,958.06
2016-10-15T00:11:57.918Z,958.08
2016-10-15T00:12:57.878Z,958.04
2016-10-15T00:13:57.840Z,958.11
2016-10-15T00:14:57.802Z,958.13
2016-10-15T00:15:57.765Z,958.09
2016-10-15T00:16:57.724Z,958.11
2016-10-15T00:17:57.687Z,958.07
2016-10-15T00:18:57.648Z,958.09
2016-10-15T00:19:57.611Z,958.09
2016-10-15T00:20:57.575Z,958.14
2016-10-15T00:21:57.535Z,958.13
2016-10-15T00:22:57.496Z,958.11
2016-10-15T00:23:57.456Z,958.17
2016-10-15T00:24:57.419Z,958.13
2016-10-15T00:25:57.379Z,958.11
2016-10-15T00:26:57.367Z,958.1
2016-10-15T00:27:57.304Z,958.07
2016-10-15T00:28:57.265Z,958.03
2016-10-15T00:29:57.227Z,957.97
2016-10-15T00:30:57.188Z,958.01
2016-10-15T00:31:57.152Z,957.99
2016-10-15T00:32:57.110Z,958.02
2016-10-15T00:33:57.073Z,958
2016-10-15T00:34:57.035Z,958.02
2016-10-15T00:35:56.994Z,958.01
2016-10-15T00:36:56.961Z,958.04
2016-10-15T00:37:56.920Z,958.01
2016-10-15T00:38:56.881Z,958.06
2016-10-15T00:39:56.842Z,958.07
2016-10-15T00:40:56.807Z,958.04
2016-10-15T00:41:56.766Z,958.09
2016-10-15T00:42:56.727Z,958.18
2016-10-15T00:43:56.688Z,958.19
2016-10-15T00:44:56.651Z,958.18
2016-10-15T00:45:56.614Z,958.2
2016-10-15T00:46:56.575Z,958.14
2016-10-15T00:47:56.538Z,958.06
2016-10-15T00:48:56.497Z,958.08
2016-10-15T00:49:56.460Z,958.05
2016-10-15T00:50:56.422Z,958.03
2016-10-15T00:51:56.386Z,958.06
2016-10-15T00:52:56.345Z,958
2016-10-15T00:53:56.305Z,958.03
2016-10-15T00:54:56.269Z,958.03
2016-10-15T00:55:56.229Z,958.02
2016-10-15T00:56:56.192Z,958.03
2016-10-15T00:57:56.156Z,958.11
2016-10-15T00:58:56.116Z,958.15
2016-10-15T00:59:56.078Z,958.18
2016-10-15T01:00:56.038Z,958.2
2016-10-15T01:01:56.001Z,958.16
2016-10-15T01:02:55.964Z,958.18
2016-10-15T01:03:55.926Z,958.14
2016-10-15T01:04:55.885Z,958.19
2016-10-15T01:05:55.847Z,958.18
2016-10-15T01:06:55.810Z,958.17
2016-10-15T01:07:55.770Z,958.12
2016-10-15T01:08:55.732Z,958.15
2016-10-15T01:09:55.694Z,958.11
2016-10-15T01:10:55.656Z,958.13
2016-10-15T01:11:55.616Z,958.14
2016-10-15T01:12:55.577Z,958.11
2016-10-15T01:13:55.540Z,958.13
2016-10-15T01:14:55.502Z,958.12
2016-10-15T01:15:55.464Z,958.1
2016-10-15T01:16:55.425Z,958.2
2016-10-15T01:17:55.387Z,958.19
2016-10-15T01:18:55.348Z,958.24
2016-10-15T01:19:55.310Z,958.32
2016-10-15T01:20:55.272Z,958.36
2016-10-15T01:21:55.235Z,958.4
2016-10-15T01:22:55.195Z,958.48
2016-10-15T01:23:55.157Z,958.48
2016-10-15T01:24:55.120Z,958.47
2016-10-15T01:25:55.083Z,958.5
2016-10-15T01:26:55.043Z,958.5
2016-10-15T01:27:55.233Z,958.51
2016-10-15T01:28:54.967Z,958.56
2016-10-15T01:29:54.928Z,958.59
2016-10-15T01:30:54.891Z,958.64
2016-10-15T01:31:54.852Z,958.61
2016-10-15T01:32:54.814Z,958.62
2016-10-15T01:33:54.775Z,958.65
2016-10-15T01:34:54.738Z,958.62
2016-10-15T01:35:54.699Z,958.69
2016-10-15T01:36:54.665Z,958.74
2016-10-15T01:37:54.622Z,958.76
2016-10-15T01:38:54.588Z,958.78
2016-10-15T01:39:54.546Z,958.8
2016-10-15T01:40:54.508Z,958.79
2016-10-15T01:41:54.471Z,958.82
2016-10-15T01:42:54.431Z,958.87
2016-10-15T01:43:54.395Z,958.84
2016-10-15T01:44:54.354Z,958.93
2016-10-15T01:45:54.317Z,958.99
2016-10-15T01:46:54.279Z,959.05
2016-10-15T01:47:54.243Z,959.01
2016-10-15T01:48:54.202Z,959.03
2016-10-15T01:49:54.164Z,959.03
2016-10-15T01:50:54.125Z,959.03
2016-10-15T01:51:54.087Z,959.04
2016-10-15T01:52:54.049Z,959.1
2016-10-15T01:53:54.011Z,959.13
2016-10-15T01:54:53.975Z,959.09
2016-10-15T01:55:53.933Z,959.1
2016-10-15T01:56:53.896Z,959.1
2016-10-15T01:57:53.857Z,959.08
2016-10-15T01:58:53.818Z,959.12
2016-10-15T01:59:53.781Z,959.17
2016-10-15T02:00:53.742Z,959.22
2016-10-15T02:01:53.709Z,959.29
2016-10-15T02:02:53.665Z,959.35
2016-10-15T02:03:53.628Z,959.39
2016-10-15T02:04:53.589Z,959.43
2016-10-15T02:05:53.550Z,959.46
2016-10-15T02:06:53.514Z,959.48
2016-10-15T02:07:53.475Z,959.53
2016-10-15T02:08:53.435Z,959.56
2016-10-15T02:09:53.397Z,959.6
2016-10-15T02:10:53.357Z,959.61
2016-10-15T02:11:53.320Z,959.64
2016-10-15T02:12:53.280Z,959.64
2016-10-15T02:13:53.242Z,959.64
2016-10-15T02:14:53.205Z,959.67
2016-10-15T02:15:53.165Z,959.67
2016-10-15T02:16:53.127Z,959.67
2016-10-15T02:17:53.087Z,959.69
2016-10-15T02:18:53.050Z,959.67
2016-10-15T02:19:53.011Z,959.71
2016-10-15T02:20:52.973Z,959.72
2016-10-15T02:21:52.933Z,959.71
2016-10-15T02:22:52.896Z,959.7
2016-10-15T02:23:52.858Z,959.8
2016-10-15T02:24:52.817Z,959.81
2016-10-15T02:25:52.778Z,959.84
2016-10-15T02:26:52.742Z,959.86
2016-10-15T02:27:52.702Z,959.91
2016-10-15T02:28:52.681Z,959.93
2016-10-15T02:29:52.625Z,959.98
2016-10-15T02:30:52.586Z,959.92
2016-10-15T02:31:52.548Z,960
2016-10-15T02:32:52.510Z,959.96
2016-10-15T02:33:52.471Z,960
2016-10-15T02:34:52.431Z,960.02
2016-10-15T02:35:52.394Z,959.97
2016-10-15T02:36:52.355Z,960.01
2016-10-15T02:38:52.277Z,960.02
2016-10-15T02:39:52.237Z,960.01
2016-10-15T02:40:52.198Z,960.07
2016-10-15T02:41:52.161Z,960.08
2016-10-15T02:42:52.121Z,960.06
2016-10-15T02:43:52.083Z,960.01
2016-10-15T02:44:52.044Z,960.05
2016-10-15T02:45:52.007Z,960
2016-10-15T02:46:51.967Z,960.06
2016-10-15T02:47:51.927Z,960
2016-10-15T02:48:51.891Z,959.99
2016-10-15T02:49:51.851Z,959.97
2016-10-15T02:50:51.811Z,959.91
2016-10-15T02:51:51.774Z,959.96
2016-10-15T02:52:51.733Z,959.92
2016-10-15T02:53:51.694Z,959.89
2016-10-15T02:54:51.656Z,959.9
2016-10-15T02:55:51.619Z,959.92
2016-10-15T02:56:51.579Z,959.94
2016-10-15T02:57:51.539Z,959.99
2016-10-15T02:58:51.499Z,960.02
2016-10-15T02:59:51.463Z,960.03
2016-10-15T03:00:51.425Z,960.07
2016-10-15T03:01:51.382Z,960.11
2016-10-15T03:02:51.346Z,960.1
2016-10-15T03:03:51.307Z,960.13
2016-10-15T03:04:51.269Z,960.08
2016-10-15T03:05:51.230Z,960.11
2016-10-15T03:06:51.192Z,960.1
2016-10-15T03:07:51.152Z,960.11
2016-10-15T03:08:51.114Z,960.17
2016-10-15T03:09:51.074Z,960.12
2016-10-15T03:10:51.035Z,960.16
2016-10-15T03:11:50.996Z,960.11
2016-10-15T03:12:50.957Z,960.11
2016-10-15T03:13:50.918Z,960.12
2016-10-15T03:14:50.881Z,960.09
2016-10-15T03:15:50.840Z,960.04
2016-10-15T03:16:50.803Z,960.07
2016-10-15T03:17:50.764Z,960.05
2016-10-15T03:18:50.724Z,960.03
2016-10-15T03:19:50.686Z,960.04
2016-10-15T03:20:50.648Z,960.03
2016-10-15T03:21:50.608Z,960.03
2016-10-15T03:22:50.571Z,960.01
2016-10-15T03:23:50.531Z,960.06
2016-10-15T03:24:50.491Z,960.05
2016-10-15T03:25:50.452Z,960.08
2016-10-15T03:26:50.415Z,960.11
2016-10-15T03:27:50.376Z,960.18
2016-10-15T03:28:50.338Z,960.21
2016-10-15T03:29:50.299Z,960.21
2016-10-15T03:30:50.258Z,960.22
2016-10-15T03:31:50.220Z,960.21
2016-10-15T03:32:50.181Z,960.23
2016-10-15T03:33:50.143Z,960.21
2016-10-15T03:34:50.103Z,960.24
2016-10-15T03:35:50.065Z,960.22
2016-10-15T03:36:50.026Z,960.26
2016-10-15T03:37:49.986Z,960.24
2016-10-15T03:38:49.947Z,960.25
2016-10-15T03:39:49.913Z,960.26
2016-10-15T03:40:49.871Z,960.24
2016-10-15T03:41:49.832Z,960.23
2016-10-15T03:42:49.795Z,960.24
2016-10-15T03:43:49.756Z,960.23
2016-10-15T03:44:49.718Z,960.23
2016-10-15T03:45:49.675Z,960.21
2016-10-15T03:46:49.638Z,960.24
2016-10-15T03:47:49.600Z,960.25
2016-10-15T03:48:49.560Z,960.26
2016-10-15T03:49:49.523Z,960.24
2016-10-15T03:50:49.483Z,960.28
2016-10-15T03:51:49.445Z,960.27
2016-10-15T03:52:49.406Z,960.31
2016-10-15T03:53:49.367Z,960.27
2016-10-15T03:54:49.329Z,960.32
2016-10-15T03:55:49.290Z,960.31
2016-10-15T03:56:49.251Z,960.31
2016-10-15T03:57:49.213Z,960.3
2016-10-15T03:58:49.184Z,960.26
2016-10-15T03:59:49.135Z,960.29
2016-10-15T04:00:49.096Z,960.23
2016-10-15T04:01:49.058Z,960.26
2016-10-15T04:02:49.019Z,960.27
2016-10-15T04:03:48.981Z,960.2
2016-10-15T04:04:48.940Z,960.18
2016-10-15T04:05:48.902Z,960.21
2016-10-15T04:06:48.864Z,960.24
2016-10-15T04:07:48.825Z,960.26
2016-10-15T04:08:48.787Z,960.27
2016-10-15T04:09:48.749Z,960.26
2016-10-15T04:10:48.711Z,960.33
2016-10-15T04:11:48.671Z,960.33
2016-10-15T04:12:48.633Z,960.32
2016-10-15T04:13:48.595Z,960.35
2016-10-15T04:14:48.554Z,960.34
2016-10-15T04:15:48.516Z,960.37
2016-10-15T04:16:48.476Z,960.39
2016-10-15T04:17:48.438Z,960.46
2016-10-15T04:18:48.399Z,960.46
2016-10-15T04:19:48.360Z,960.48
2016-10-15T04:20:48.321Z,960.51
2016-10-15T04:21:48.283Z,960.52
2016-10-15T04:22:48.244Z,960.52
2016-10-15T04:23:48.206Z,960.53
2016-10-15T04:24:48.166Z,960.58
2016-10-15T04:25:48.127Z,960.6
2016-10-15T04:26:48.087Z,960.67
2016-10-15T04:27:48.049Z,960.69
2016-10-15T04:28:48.011Z,960.69
2016-10-15T04:29:47.975Z,960.69
2016-10-15T04:30:47.933Z,960.66
2016-10-15T04:31:47.894Z,960.65
2016-10-15T04:32:47.855Z,960.68
2016-10-15T04:33:47.816Z,960.62
2016-10-15T04:34:47.777Z,960.63
2016-10-15T04:35:47.739Z,960.64
2016-10-15T04:36:47.701Z,960.65
2016-10-15T04:37:47.662Z,960.68
2016-10-15T04:38:47.623Z,960.66
2016-10-15T04:39:47.584Z,960.69
2016-10-15T04:40:47.544Z,960.73
2016-10-15T04:41:47.506Z,960.77
2016-10-15T04:42:47.467Z,960.76
2016-10-15T04:43:47.428Z,960.81
2016-10-15T04:44:47.390Z,960.83
2016-10-15T04:45:47.351Z,960.81
2016-10-15T04:46:47.313Z,960.83
2016-10-15T04:47:47.272Z,960.85
2016-10-15T04:48:47.236Z,960.92
2016-10-15T04:49:47.195Z,960.88
2016-10-15T04:50:47.156Z,960.9
2016-10-15T04:51:47.118Z,960.9
2016-10-15T04:52:47.079Z,960.92
2016-10-15T04:53:47.040Z,960.87
2016-10-15T04:54:47.001Z,960.86
2016-10-15T04:55:46.961Z,960.92
2016-10-15T04:56:46.925Z,960.91
2016-10-15T04:57:46.886Z,960.91
2016-10-15T04:58:46.846Z,960.93
2016-10-15T04:59:46.807Z,960.97
2016-10-15T05:00:46.769Z,960.96
2016-10-15T05:01:46.729Z,960.97
2016-10-15T05:02:46.691Z,961
2016-10-15T05:03:46.653Z,961.09
2016-10-15T05:04:46.615Z,961.15
2016-10-15T05:05:46.574Z,961.11
2016-10-15T05:06:46.534Z,961.17
2016-10-15T05:07:46.499Z,961.15
2016-10-15T05:08:46.459Z,961.2
2016-10-15T05:09:46.419Z,961.13
2016-10-15T05:10:46.387Z,961.18
2016-10-15T05:11:46.343Z,961.2
2016-10-15T05:12:46.303Z,961.23
2016-10-15T05:13:46.266Z,961.22
2016-10-15T05:14:46.227Z,961.25
2016-10-15T05:15:46.187Z,961.25
2016-10-15T05:16:46.148Z,961.26
2016-10-15T05:17:46.109Z,961.29
2016-10-15T05:18:46.070Z,961.31
2016-10-15T05:19:46.033Z,961.38
2016-10-15T05:20:45.992Z,961.35
2016-10-15T05:21:45.954Z,961.4
2016-10-15T05:22:45.916Z,961.45
2016-10-15T05:23:45.877Z,961.43
2016-10-15T05:24:45.838Z,961.45
2016-10-15T05:25:45.800Z,961.44
2016-10-15T05:26:45.762Z,961.48
2016-10-15T05:27:45.723Z,961.47
2016-10-15T05:28:45.684Z,961.49
2016-10-15T05:29:45.645Z,961.5
2016-10-15T05:30:45.608Z,961.52
2016-10-15T05:31:45.566Z,961.53
2016-10-15T05:32:45.530Z,961.55
2016-10-15T05:33:45.490Z,961.58
2016-10-15T05:34:45.451Z,961.56
2016-10-15T05:35:45.413Z,961.57
2016-10-15T05:36:45.374Z,961.56
2016-10-15T05:37:45.334Z,961.61
2016-10-15T05:38:45.294Z,961.59
2016-10-15T05:39:45.256Z,961.6
2016-10-15T05:40:45.221Z,961.6
2016-10-15T05:41:45.179Z,961.67
2016-10-15T05:42:45.146Z,961.66
2016-10-15T05:43:45.103Z,961.71
2016-10-15T05:44:45.065Z,961.74
2016-10-15T05:45:45.027Z,961.71
2016-10-15T05:46:44.987Z,961.75
2016-10-15T05:47:44.949Z,961.75
2016-10-15T05:48:44.911Z,961.8
2016-10-15T05:49:44.871Z,961.78
2016-10-15T05:50:44.836Z,961.77
2016-10-15T05:51:44.798Z,961.84
2016-10-15T05:52:44.757Z,961.87
2016-10-15T05:53:44.718Z,961.9
2016-10-15T05:54:44.680Z,961.96
2016-10-15T05:55:44.641Z,961.98
2016-10-15T05:56:44.601Z,961.99
2016-10-15T05:57:44.564Z,962.06
2016-10-15T05:58:44.527Z,962.05
2016-10-15T05:59:44.488Z,962.14
2016-10-15T06:00:44.448Z,962.11
2016-10-15T06:01:44.411Z,962.15
2016-10-15T06:02:44.374Z,962.14
2016-10-15T06:03:44.335Z,962.18
2016-10-15T06:04:44.295Z,962.15
2016-10-15T06:05:44.257Z,962.16
2016-10-15T06:06:44.222Z,962.12
2016-10-15T06:07:44.182Z,962.16
2016-10-15T06:08:44.142Z,962.17
2016-10-15T06:09:44.105Z,962.15
2016-10-15T06:10:44.067Z,962.2
2016-10-15T06:11:44.030Z,962.2
2016-10-15T06:12:43.992Z,962.27
2016-10-15T06:13:43.953Z,962.23
2016-10-15T06:14:43.920Z,962.24
2016-10-15T06:15:43.877Z,962.31
2016-10-15T06:16:43.840Z,962.31
2016-10-15T06:17:43.802Z,962.35
2016-10-15T06:18:43.763Z,962.33
2016-10-15T06:19:43.726Z,962.38
2016-10-15T06:20:43.688Z,962.37
2016-10-15T06:21:43.651Z,962.41
2016-10-15T06:22:43.613Z,962.43
2016-10-15T06:23:43.576Z,962.49
2016-10-15T06:24:43.536Z,962.48
2016-10-15T06:25:43.499Z,962.48
2016-10-15T06:26:43.465Z,962.48
2016-10-15T06:27:43.422Z,962.48
2016-10-15T06:28:43.386Z,962.51
2016-10-15T06:29:43.347Z,962.47
2016-10-15T06:30:43.308Z,962.53
2016-10-15T06:31:43.280Z,962.58
2016-10-15T06:32:43.234Z,962.63
2016-10-15T06:33:43.195Z,962.64
2016-10-15T06:34:43.158Z,962.71
2016-10-15T06:35:43.122Z,962.72
2016-10-15T06:36:43.082Z,962.75
2016-10-15T06:37:43.043Z,962.84
2016-10-15T06:38:43.007Z,962.84
2016-10-15T06:39:42.972Z,962.84
2016-10-15T06:40:42.930Z,962.88
2016-10-15T06:41:42.894Z,962.88
2016-10-15T06:42:42.854Z,962.82
2016-10-15T06:43:42.819Z,962.84
2016-10-15T06:44:42.779Z,962.86
2016-10-15T06:45:42.741Z,962.85
2016-10-15T06:46:42.706Z,962.93
2016-10-15T06:47:42.666Z,962.88
2016-10-15T06:48:42.629Z,962.93
2016-10-15T06:49:42.592Z,962.96
2016-10-15T06:50:42.556Z,962.99
2016-10-15T06:51:42.517Z,963.01
2016-10-15T06:52:42.479Z,963.09
2016-10-15T06:53:42.441Z,963.11
2016-10-15T06:54:42.405Z,963.14
2016-10-15T06:55:42.365Z,963.14
2016-10-15T06:56:42.327Z,963.17
2016-10-15T06:57:42.295Z,963.16
2016-10-15T06:58:42.254Z,963.21
2016-10-15T06:59:42.215Z,963.22
2016-10-15T07:00:42.180Z,963.24
2016-10-15T07:01:42.142Z,963.27
2016-10-15T07:02:42.103Z,963.25
2016-10-15T07:03:42.067Z,963.29
2016-10-15T07:04:42.030Z,963.29
2016-10-15T07:05:41.995Z,963.33
2016-10-15T07:06:41.954Z,963.35
2016-10-15T07:07:41.919Z,963.39
2016-10-15T07:08:41.881Z,963.39
2016-10-15T07:09:41.843Z,963.4
2016-10-15T07:10:41.810Z,963.4
2016-10-15T07:11:41.770Z,963.43
2016-10-15T07:12:41.734Z,963.47
2016-10-15T07:13:41.694Z,963.51
2016-10-15T07:14:41.657Z,963.5
2016-10-15T07:15:41.620Z,963.52
2016-10-15T07:16:41.584Z,963.52
2016-10-15T07:17:41.550Z,963.53
2016-10-15T07:18:41.511Z,963.58
2016-10-15T07:19:41.475Z,963.56
2016-10-15T07:20:41.436Z,963.62
2016-10-15T07:21:41.401Z,963.61
2016-10-15T07:22:41.363Z,963.64
2016-10-15T07:23:41.327Z,963.67
2016-10-15T07:24:41.290Z,963.7
2016-10-15T07:25:41.253Z,963.72
2016-10-15T07:26:41.215Z,963.77
2016-10-15T07:27:41.178Z,963.77
2016-10-15T07:28:41.141Z,963.78
2016-10-15T07:29:41.104Z,963.84
2016-10-15T07:30:41.069Z,963.86
2016-10-15T07:31:41.032Z,963.91
2016-10-15T07:32:40.994Z,963.93
2016-10-15T07:33:40.958Z,963.94
2016-10-15T07:34:40.921Z,963.92
2016-10-15T07:35:40.886Z,964.02
2016-10-15T07:36:40.848Z,964.02
2016-10-15T07:37:40.811Z,964.04
2016-10-15T07:38:40.774Z,964.08
2016-10-15T07:39:40.740Z,964.05
2016-10-15T07:40:40.700Z,964.08
2016-10-15T07:41:40.664Z,964.03
2016-10-15T07:42:40.627Z,964.05
2016-10-15T07:43:40.592Z,964.07
2016-10-15T07:44:40.555Z,964.11
2016-10-15T07:45:40.519Z,964.13
2016-10-15T07:46:40.482Z,964.14
2016-10-15T07:47:40.444Z,964.13
2016-10-15T07:48:40.410Z,964.19
2016-10-15T07:49:40.371Z,964.19
2016-10-15T07:50:40.335Z,964.27
2016-10-15T07:51:40.299Z,964.28
2016-10-15T07:52:40.263Z,964.29
2016-10-15T07:53:40.226Z,964.32
2016-10-15T07:54:40.191Z,964.35
2016-10-15T07:55:40.154Z,964.38
2016-10-15T07:56:40.116Z,964.35
2016-10-15T07:57:40.082Z,964.33
2016-10-15T07:58:40.045Z,964.38
2016-10-15T07:59:40.008Z,964.39
2016-10-15T08:00:39.973Z,964.36
2016-10-15T08:01:39.937Z,964.39
2016-10-15T08:02:39.901Z,964.38
2016-10-15T08:03:39.864Z,964.41
2016-10-15T08:04:39.831Z,964.4
2016-10-15T08:05:39.792Z,964.39
2016-10-15T08:06:39.758Z,964.42
2016-10-15T08:07:39.722Z,964.41
2016-10-15T08:08:39.686Z,964.39
2016-10-15T08:09:39.649Z,964.41
2016-10-15T08:10:39.615Z,964.43
2016-10-15T08:11:39.579Z,964.43
2016-10-15T08:12:39.544Z,964.45
2016-10-15T08:13:39.509Z,964.52
2016-10-15T08:14:39.472Z,964.53
2016-10-15T08:15:39.436Z,964.59
2016-10-15T08:16:39.404Z,964.61
2016-10-15T08:17:39.365Z,964.63
2016-10-15T08:18:39.330Z,964.67
2016-10-15T08:19:39.293Z,964.64
2016-10-15T08:20:39.256Z,964.65
2016-10-15T08:21:39.223Z,964.64
2016-10-15T08:22:39.188Z,964.65
2016-10-15T08:23:39.151Z,964.66
2016-10-15T08:24:39.115Z,964.66
2016-10-15T08:25:39.079Z,964.67
2016-10-15T08:26:39.043Z,964.69
2016-10-15T08:27:39.016Z,964.66
2016-10-15T08:28:38.972Z,964.67
2016-10-15T08:29:38.945Z,964.68
2016-10-15T08:30:38.901Z,964.71
2016-10-15T08:31:38.866Z,964.67
2016-10-15T08:32:38.831Z,964.74
2016-10-15T08:33:38.792Z,964.73
2016-10-15T08:34:38.759Z,964.72
2016-10-15T08:35:38.721Z,964.75
2016-10-15T08:36:38.687Z,964.81
2016-10-15T08:37:38.650Z,964.75
2016-10-15T08:38:38.614Z,964.77
2016-10-15T08:39:38.578Z,964.78
2016-10-15T08:40:38.545Z,964.79
2016-10-15T08:41:38.507Z,964.83
2016-10-15T08:42:38.471Z,964.82
2016-10-15T08:43:38.435Z,964.81
2016-10-15T08:44:38.400Z,964.8
2016-10-15T08:45:38.365Z,964.83
2016-10-15T08:46:38.330Z,964.84
2016-10-15T08:47:38.292Z,964.81
2016-10-15T08:48:38.255Z,964.85
2016-10-15T08:49:38.220Z,964.86
2016-10-15T08:50:38.184Z,964.88
2016-10-15T08:51:38.151Z,964.91
2016-10-15T08:52:38.114Z,964.91
2016-10-15T08:53:38.078Z,964.92
2016-10-15T08:54:38.044Z,964.95
2016-10-15T08:55:38.006Z,964.98
2016-10-15T08:56:37.970Z,965.01
2016-10-15T08:57:37.935Z,965.03
2016-10-15T08:58:37.902Z,965
2016-10-15T08:59:37.864Z,965
2016-10-15T09:00:37.827Z,965.03
2016-10-15T09:01:37.792Z,965.04
2016-10-15T09:02:37.757Z,965.05
2016-10-15T09:03:37.720Z,965.05
2016-10-15T09:04:37.683Z,965.06
2016-10-15T09:05:37.650Z,965.04
2016-10-15T09:06:37.613Z,965.05
2016-10-15T09:07:37.580Z,965.06
2016-10-15T09:08:37.542Z,965.1
2016-10-15T09:09:37.507Z,965.08
2016-10-15T09:10:37.471Z,965.09
2016-10-15T09:11:37.435Z,965.12
2016-10-15T09:12:37.400Z,965.14
2016-10-15T09:13:37.365Z,965.12
2016-10-15T09:14:37.328Z,965.15
2016-10-15T09:15:37.295Z,965.18
2016-10-15T09:16:37.258Z,965.17
2016-10-15T09:17:37.220Z,965.14
2016-10-15T09:18:37.188Z,965.2
2016-10-15T09:19:37.149Z,965.2
2016-10-15T09:20:37.115Z,965.22
2016-10-15T09:21:37.078Z,965.19
2016-10-15T09:22:37.042Z,965.23
2016-10-15T09:23:37.008Z,965.22
2016-10-15T09:24:36.971Z,965.2
2016-10-15T09:25:36.936Z,965.19
2016-10-15T09:26:36.901Z,965.2
2016-10-15T09:27:36.876Z,965.22
2016-10-15T09:28:36.828Z,965.15
2016-10-15T09:29:36.794Z,965.17
2016-10-15T09:30:36.758Z,965.23
2016-10-15T09:31:36.723Z,965.18
2016-10-15T09:32:36.687Z,965.2
2016-10-15T09:33:36.653Z,965.21
2016-10-15T09:34:36.616Z,965.23
2016-10-15T09:35:36.581Z,965.2
2016-10-15T09:36:36.545Z,965.2
2016-10-15T09:37:36.516Z,965.21
2016-10-15T09:38:36.474Z,965.2
2016-10-15T09:39:36.439Z,965.21
2016-10-15T09:40:36.403Z,965.23
2016-10-15T09:41:36.368Z,965.22
2016-10-15T09:42:36.333Z,965.2
2016-10-15T09:43:36.297Z,965.23
2016-10-15T09:44:36.261Z,965.18
2016-10-15T09:45:36.228Z,965.2
2016-10-15T09:46:36.192Z,965.16
2016-10-15T09:47:36.156Z,965.14
2016-10-15T09:48:36.121Z,965.18
2016-10-15T09:49:36.085Z,965.17
2016-10-15T09:50:36.050Z,965.21
2016-10-15T09:51:36.016Z,965.22
2016-10-15T09:52:35.979Z,965.25
2016-10-15T09:53:35.947Z,965.24
2016-10-15T09:54:35.911Z,965.28
2016-10-15T09:55:35.874Z,965.31
2016-10-15T09:56:35.839Z,965.36
2016-10-15T09:57:35.805Z,965.34
2016-10-15T09:58:35.768Z,965.39
2016-10-15T09:59:35.734Z,965.39
2016-10-15T10:00:35.700Z,965.4
2016-10-15T10:01:35.663Z,965.4
2016-10-15T10:02:35.629Z,965.44
2016-10-15T10:03:35.592Z,965.44
2016-10-15T10:04:35.559Z,965.44
2016-10-15T10:05:35.524Z,965.46
2016-10-15T10:06:35.488Z,965.52
2016-10-15T10:07:35.454Z,965.47
2016-10-15T10:08:35.417Z,965.49
2016-10-15T10:09:35.380Z,965.46
2016-10-15T10:10:35.347Z,965.48
2016-10-15T10:11:35.314Z,965.51
2016-10-15T10:12:35.278Z,965.53
2016-10-15T10:13:35.242Z,965.52
2016-10-15T10:14:35.209Z,965.56
2016-10-15T10:15:35.174Z,965.56
2016-10-15T10:16:35.139Z,965.58
2016-10-15T10:17:35.103Z,965.58
2016-10-15T10:18:35.070Z,965.55
2016-10-15T10:19:35.034Z,965.55
2016-10-15T10:20:35.001Z,965.49
2016-10-15T10:21:34.966Z,965.42
2016-10-15T10:22:34.932Z,965.42
2016-10-15T10:23:34.897Z,965.4
2016-10-15T10:24:34.864Z,965.41
2016-10-15T10:25:34.828Z,965.44
2016-10-15T10:26:34.792Z,965.45
2016-10-15T10:27:34.759Z,965.47
2016-10-15T10:28:34.725Z,965.48
2016-10-15T10:29:34.692Z,965.46
2016-10-15T10:30:34.657Z,965.47
2016-10-15T10:31:34.623Z,965.52
2016-10-15T10:32:34.588Z,965.57
2016-10-15T10:33:34.554Z,965.61
2016-10-15T10:34:34.520Z,965.59
2016-10-15T10:35:34.485Z,965.62
2016-10-15T10:36:34.452Z,965.63
2016-10-15T10:37:34.418Z,965.61
2016-10-15T10:38:34.383Z,965.58
2016-10-15T10:39:34.350Z,965.6
2016-10-15T10:40:34.318Z,965.63
2016-10-15T10:41:34.280Z,965.63
2016-10-15T10:42:34.247Z,965.63
2016-10-15T10:43:34.214Z,965.6
2016-10-15T10:44:34.181Z,965.6
2016-10-15T10:45:34.145Z,965.62
2016-10-15T10:46:34.110Z,965.61
2016-10-15T10:47:34.078Z,965.6
2016-10-15T10:48:34.043Z,965.62
2016-10-15T10:49:34.009Z,965.65
2016-10-15T10:50:33.976Z,965.65
2016-10-15T10:51:33.942Z,965.67
2016-10-15T10:52:33.908Z,965.66
2016-10-15T10:53:33.875Z,965.62
2016-10-15T10:54:33.839Z,965.64
2016-10-15T10:55:33.809Z,965.65
2016-10-15T10:56:33.777Z,965.66
2016-10-15T10:57:33.740Z,965.66
2016-10-15T10:58:33.709Z,965.68
2016-10-15T10:59:33.678Z,965.7
2016-10-15T11:00:33.639Z,965.67
2016-10-15T11:01:33.606Z,965.67
2016-10-15T11:02:33.575Z,965.69
2016-10-15T11:03:33.540Z,965.67
2016-10-15T11:04:33.507Z,965.69
2016-10-15T11:05:33.473Z,965.67
2016-10-15T11:06:33.443Z,965.69
2016-10-15T11:07:33.410Z,965.67
2016-10-15T11:08:33.376Z,965.66
2016-10-15T11:09:33.344Z,965.65
2016-10-15T11:10:33.312Z,965.66
2016-10-15T11:11:33.279Z,965.68
2016-10-15T11:12:33.248Z,965.67
2016-10-15T11:13:33.214Z,965.68
2016-10-15T11:14:33.181Z,965.69
2016-10-15T11:15:33.152Z,965.7
2016-10-15T11:16:33.118Z,965.67
2016-10-15T11:17:33.087Z,965.69
2016-10-15T11:18:33.056Z,965.68
2016-10-15T11:19:33.021Z,965.7
2016-10-15T11:20:32.991Z,965.69
2016-10-15T11:21:32.957Z,965.67
2016-10-15T11:22:32.927Z,965.64
2016-10-15T11:23:32.895Z,965.67
2016-10-15T11:24:32.863Z,965.66
2016-10-15T11:25:32.830Z,965.65
2016-10-15T11:26:32.800Z,965.66
2016-10-15T11:27:32.767Z,965.68
2016-10-15T11:28:32.737Z,965.65
2016-10-15T11:29:32.705Z,965.65
2016-10-15T11:30:32.673Z,965.69
2016-10-15T11:31:32.642Z,965.66
2016-10-15T11:32:32.608Z,965.66
2016-10-15T11:33:32.580Z,965.69
2016-10-15T11:34:32.549Z,965.64
2016-10-15T11:35:32.517Z,965.59
2016-10-15T11:36:32.485Z,965.64
2016-10-15T11:37:32.454Z,965.59
2016-10-15T11:38:32.423Z,965.63
2016-10-15T11:39:32.396Z,965.63
2016-10-15T11:40:32.360Z,965.63
2016-10-15T11:41:32.330Z,965.67
2016-10-15T11:42:32.298Z,965.63
2016-10-15T11:43:32.265Z,965.61
2016-10-15T11:44:32.237Z,965.55
2016-10-15T11:45:32.205Z,965.57
2016-10-15T11:46:32.175Z,965.57
2016-10-15T11:47:32.142Z,965.56
2016-10-15T11:48:32.111Z,965.53
2016-10-15T11:49:32.081Z,965.57
2016-10-15T11:50:32.048Z,965.56
2016-10-15T11:51:32.017Z,965.53
2016-10-15T11:52:31.987Z,965.59
2016-10-15T11:53:31.956Z,965.58
2016-10-15T11:54:31.923Z,965.56
2016-10-15T11:55:31.893Z,965.56
2016-10-15T11:56:31.863Z,965.59
2016-10-15T11:57:31.831Z,965.58
2016-10-15T11:58:31.800Z,965.56
2016-10-15T11:59:31.803Z,965.53
2016-10-15T12:00:31.738Z,965.51
2016-10-15T12:01:31.708Z,965.49
2016-10-15T12:02:31.677Z,965.51
2016-10-15T12:03:31.647Z,965.49
2016-10-15T12:04:31.615Z,965.49
2016-10-15T12:05:31.583Z,965.5
2016-10-15T12:06:31.553Z,965.49
2016-10-15T12:07:31.523Z,965.5
2016-10-15T12:08:31.495Z,965.53
2016-10-15T12:09:31.460Z,965.52
2016-10-15T12:10:31.430Z,965.52
2016-10-15T12:11:31.399Z,965.5
2016-10-15T12:12:31.369Z,965.54
2016-10-15T12:13:31.340Z,965.55
2016-10-15T12:14:31.307Z,965.53
2016-10-15T12:15:31.276Z,965.53
2016-10-15T12:16:31.246Z,965.53
2016-10-15T12:17:31.216Z,965.55
2016-10-15T12:18:31.184Z,965.53
2016-10-15T12:19:31.154Z,965.56
2016-10-15T12:20:31.123Z,965.54
2016-10-15T12:21:31.095Z,965.54
2016-10-15T12:22:31.062Z,965.55
2016-10-15T12:23:31.031Z,965.56
2016-10-15T12:24:31.000Z,965.57
2016-10-15T12:25:30.969Z,965.6
2016-10-15T12:26:30.940Z,965.57
2016-10-15T12:27:30.909Z,965.57
2016-10-15T12:28:30.877Z,965.57
2016-10-15T12:29:30.849Z,965.54
2016-10-15T12:30:30.816Z,965.51
2016-10-15T12:31:30.785Z,965.53
2016-10-15T12:32:30.756Z,965.49